sensor_id;sensor_type;location;lat;lon;timestamp;P1;durP1;ratioP1;P2;durP2;ratioP2
13973;SDS011;7060;43.770;4.008;2022-09-09T00:02:04;4.37;;;0.73;;
13973;SDS011;7060;43.770;4.008;2022-09-09T00:04:42;8.13;;;1.43;;
13973;SDS011;7060;43.770;4.008;2022-09-09T00:07:18;3.37;;;0.80;;
13973;SDS011;7060;43.770;4.008;2022-09-09T00:09:53;2.30;;;1.00;;
13973;SDS011;7060;43.770;4.008;2022-09-09T00:12:32;1.70;;;0.87;;
13973;SDS011;7060;43.770;4.008;2022-09-09T00:15:07;2.13;;;1.10;;
13973;SDS011;7060;43.770;4.008;2022-09-09T00:17:43;2.43;;;1.00;;
13973;SDS011;7060;43.770;4.008;2022-09-09T00:20:20;4.33;;;1.07;;
13973;SDS011;7060;43.770;4.008;2022-09-09T00:22:57;1.77;;;1.00;;
13973;SDS011;7060;43.770;4.008;2022-09-09T00:25:33;1.80;;;0.70;;
13973;SDS011;7060;43.770;4.008;2022-09-09T00:28:09;4.23;;;1.00;;
13973;SDS011;7060;43.770;4.008;2022-09-09T00:30:47;8.83;;;1.20;;
13973;SDS011;7060;43.770;4.008;2022-09-09T00:33:16;3.40;;;1.17;;
13973;SDS011;7060;43.770;4.008;2022-09-09T00:35:49;5.13;;;1.17;;
13973;SDS011;7060;43.770;4.008;2022-09-09T00:38:19;3.63;;;1.10;;
13973;SDS011;7060;43.770;4.008;2022-09-09T00:40:53;4.10;;;1.27;;
13973;SDS011;7060;43.770;4.008;2022-09-09T00:43:28;10.17;;;1.50;;
13973;SDS011;7060;43.770;4.008;2022-09-09T00:46:10;3.67;;;1.17;;
13973;SDS011;7060;43.770;4.008;2022-09-09T00:48:53;5.13;;;1.10;;
13973;SDS011;7060;43.770;4.008;2022-09-09T00:51:30;4.83;;;1.20;;
13973;SDS011;7060;43.770;4.008;2022-09-09T00:54:20;3.00;;;0.97;;
13973;SDS011;7060;43.770;4.008;2022-09-09T00:57:02;2.57;;;1.10;;
13973;SDS011;7060;43.770;4.008;2022-09-09T00:59:44;6.37;;;1.17;;
13973;SDS011;7060;43.770;4.008;2022-09-09T01:02:18;2.00;;;1.13;;
13973;SDS011;7060;43.770;4.008;2022-09-09T01:04:56;8.40;;;1.43;;
13973;SDS011;7060;43.770;4.008;2022-09-09T01:07:35;7.37;;;2.20;;
13973;SDS011;7060;43.770;4.008;2022-09-09T01:10:03;6.63;;;1.30;;
13973;SDS011;7060;43.770;4.008;2022-09-09T01:12:40;3.43;;;1.20;;
13973;SDS011;7060;43.770;4.008;2022-09-09T01:15:16;4.20;;;1.30;;
13973;SDS011;7060;43.770;4.008;2022-09-09T01:17:54;2.97;;;1.10;;
13973;SDS011;7060;43.770;4.008;2022-09-09T01:20:31;2.70;;;1.20;;
13973;SDS011;7060;43.770;4.008;2022-09-09T01:23:13;5.03;;;1.07;;
13973;SDS011;7060;43.770;4.008;2022-09-09T01:26:20;3.90;;;1.00;;
13973;SDS011;7060;43.770;4.008;2022-09-09T01:28:55;3.70;;;0.73;;
13973;SDS011;7060;43.770;4.008;2022-09-09T01:31:31;5.13;;;1.00;;
13973;SDS011;7060;43.770;4.008;2022-09-09T01:34:08;4.67;;;1.20;;
13973;SDS011;7060;43.770;4.008;2022-09-09T01:36:41;3.47;;;1.07;;
13973;SDS011;7060;43.770;4.008;2022-09-09T01:39:13;2.03;;;1.10;;
13973;SDS011;7060;43.770;4.008;2022-09-09T01:41:44;4.50;;;1.40;;
13973;SDS011;7060;43.770;4.008;2022-09-09T01:44:15;4.73;;;1.40;;
13973;SDS011;7060;43.770;4.008;2022-09-09T01:46:45;1.43;;;1.23;;
13973;SDS011;7060;43.770;4.008;2022-09-09T01:49:18;3.77;;;0.90;;
13973;SDS011;7060;43.770;4.008;2022-09-09T01:51:48;2.33;;;1.10;;
13973;SDS011;7060;43.770;4.008;2022-09-09T01:54:26;7.37;;;1.33;;
13973;SDS011;7060;43.770;4.008;2022-09-09T01:57:05;6.70;;;1.20;;
13973;SDS011;7060;43.770;4.008;2022-09-09T01:59:47;7.10;;;1.23;;
13973;SDS011;7060;43.770;4.008;2022-09-09T02:02:23;3.87;;;1.30;;
13973;SDS011;7060;43.770;4.008;2022-09-09T02:05:12;6.63;;;1.20;;
13973;SDS011;7060;43.770;4.008;2022-09-09T02:07:49;7.47;;;1.70;;
13973;SDS011;7060;43.770;4.008;2022-09-09T02:10:42;3.23;;;1.20;;
13973;SDS011;7060;43.770;4.008;2022-09-09T02:13:29;3.27;;;1.20;;
13973;SDS011;7060;43.770;4.008;2022-09-09T02:16:00;5.07;;;1.20;;
13973;SDS011;7060;43.770;4.008;2022-09-09T02:18:35;7.27;;;1.30;;
13973;SDS011;7060;43.770;4.008;2022-09-09T02:21:08;4.53;;;1.10;;
13973;SDS011;7060;43.770;4.008;2022-09-09T02:23:40;4.37;;;1.20;;
13973;SDS011;7060;43.770;4.008;2022-09-09T02:26:12;8.00;;;1.57;;
13973;SDS011;7060;43.770;4.008;2022-09-09T02:28:52;3.60;;;1.30;;
13973;SDS011;7060;43.770;4.008;2022-09-09T02:31:24;4.17;;;1.20;;
13973;SDS011;7060;43.770;4.008;2022-09-09T02:33:59;3.53;;;1.23;;
13973;SDS011;7060;43.770;4.008;2022-09-09T02:36:31;2.97;;;1.57;;
13973;SDS011;7060;43.770;4.008;2022-09-09T02:39:02;10.73;;;1.20;;
13973;SDS011;7060;43.770;4.008;2022-09-09T02:41:35;4.00;;;1.17;;
13973;SDS011;7060;43.770;4.008;2022-09-09T02:44:09;4.23;;;0.93;;
13973;SDS011;7060;43.770;4.008;2022-09-09T02:46:44;4.07;;;0.90;;
13973;SDS011;7060;43.770;4.008;2022-09-09T02:49:27;3.40;;;0.90;;
13973;SDS011;7060;43.770;4.008;2022-09-09T02:52:04;6.20;;;1.27;;
13973;SDS011;7060;43.770;4.008;2022-09-09T02:54:37;4.30;;;1.03;;
13973;SDS011;7060;43.770;4.008;2022-09-09T02:57:11;3.53;;;0.80;;
13973;SDS011;7060;43.770;4.008;2022-09-09T02:59:46;4.43;;;1.30;;
13973;SDS011;7060;43.770;4.008;2022-09-09T03:02:16;5.20;;;1.20;;
13973;SDS011;7060;43.770;4.008;2022-09-09T03:04:50;4.50;;;0.90;;
13973;SDS011;7060;43.770;4.008;2022-09-09T03:07:19;5.73;;;1.10;;
13973;SDS011;7060;43.770;4.008;2022-09-09T03:09:50;1.23;;;0.90;;
13973;SDS011;7060;43.770;4.008;2022-09-09T03:12:24;6.30;;;1.17;;
13973;SDS011;7060;43.770;4.008;2022-09-09T03:14:54;1.97;;;0.90;;
13973;SDS011;7060;43.770;4.008;2022-09-09T03:17:23;5.23;;;1.10;;
13973;SDS011;7060;43.770;4.008;2022-09-09T03:19:53;2.20;;;0.80;;
13973;SDS011;7060;43.770;4.008;2022-09-09T03:22:22;1.30;;;0.80;;
13973;SDS011;7060;43.770;4.008;2022-09-09T03:24:53;1.90;;;0.80;;
13973;SDS011;7060;43.770;4.008;2022-09-09T03:27:21;2.40;;;0.60;;
13973;SDS011;7060;43.770;4.008;2022-09-09T03:29:52;1.30;;;0.70;;
13973;SDS011;7060;43.770;4.008;2022-09-09T03:32:24;3.20;;;0.90;;
13973;SDS011;7060;43.770;4.008;2022-09-09T03:34:55;1.43;;;0.80;;
13973;SDS011;7060;43.770;4.008;2022-09-09T03:37:24;1.67;;;0.67;;
13973;SDS011;7060;43.770;4.008;2022-09-09T03:39:53;3.73;;;0.80;;
13973;SDS011;7060;43.770;4.008;2022-09-09T03:42:22;3.23;;;0.77;;
13973;SDS011;7060;43.770;4.008;2022-09-09T03:44:55;4.00;;;1.10;;
13973;SDS011;7060;43.770;4.008;2022-09-09T03:47:25;2.33;;;0.63;;
13973;SDS011;7060;43.770;4.008;2022-09-09T03:49:59;1.50;;;0.63;;
13973;SDS011;7060;43.770;4.008;2022-09-09T03:52:28;3.13;;;1.27;;
13973;SDS011;7060;43.770;4.008;2022-09-09T03:54:57;2.63;;;0.80;;
13973;SDS011;7060;43.770;4.008;2022-09-09T03:57:26;3.97;;;1.23;;
13973;SDS011;7060;43.770;4.008;2022-09-09T03:59:58;2.30;;;0.70;;
13973;SDS011;7060;43.770;4.008;2022-09-09T04:02:31;2.17;;;0.80;;
13973;SDS011;7060;43.770;4.008;2022-09-09T04:04:59;4.40;;;1.00;;
13973;SDS011;7060;43.770;4.008;2022-09-09T04:07:27;3.37;;;0.90;;
13973;SDS011;7060;43.770;4.008;2022-09-09T04:09:56;2.97;;;0.90;;
13973;SDS011;7060;43.770;4.008;2022-09-09T04:12:24;1.77;;;0.70;;
13973;SDS011;7060;43.770;4.008;2022-09-09T04:14:53;1.53;;;0.87;;
13973;SDS011;7060;43.770;4.008;2022-09-09T04:17:22;2.83;;;0.90;;
13973;SDS011;7060;43.770;4.008;2022-09-09T04:19:51;2.10;;;0.70;;
13973;SDS011;7060;43.770;4.008;2022-09-09T04:22:19;7.37;;;1.50;;
13973;SDS011;7060;43.770;4.008;2022-09-09T04:24:49;1.87;;;0.73;;
13973;SDS011;7060;43.770;4.008;2022-09-09T04:27:18;8.17;;;0.83;;
13973;SDS011;7060;43.770;4.008;2022-09-09T04:29:47;4.47;;;1.37;;
13973;SDS011;7060;43.770;4.008;2022-09-09T04:32:15;3.27;;;0.90;;
13973;SDS011;7060;43.770;4.008;2022-09-09T04:34:46;2.63;;;0.93;;
13973;SDS011;7060;43.770;4.008;2022-09-09T04:37:14;2.93;;;0.60;;
13973;SDS011;7060;43.770;4.008;2022-09-09T04:39:43;2.50;;;0.90;;
13973;SDS011;7060;43.770;4.008;2022-09-09T04:42:11;2.40;;;0.60;;
13973;SDS011;7060;43.770;4.008;2022-09-09T04:44:43;6.37;;;0.70;;
13973;SDS011;7060;43.770;4.008;2022-09-09T04:47:11;1.23;;;0.70;;
13973;SDS011;7060;43.770;4.008;2022-09-09T04:49:41;2.50;;;0.60;;
13973;SDS011;7060;43.770;4.008;2022-09-09T04:52:11;3.20;;;1.10;;
13973;SDS011;7060;43.770;4.008;2022-09-09T04:54:39;4.40;;;1.00;;
13973;SDS011;7060;43.770;4.008;2022-09-09T04:57:09;3.80;;;1.03;;
13973;SDS011;7060;43.770;4.008;2022-09-09T04:59:44;2.40;;;0.83;;
13973;SDS011;7060;43.770;4.008;2022-09-09T05:02:13;3.07;;;0.83;;
13973;SDS011;7060;43.770;4.008;2022-09-09T05:04:42;4.13;;;0.80;;
13973;SDS011;7060;43.770;4.008;2022-09-09T05:07:11;2.40;;;1.07;;
13973;SDS011;7060;43.770;4.008;2022-09-09T05:09:41;3.10;;;0.90;;
13973;SDS011;7060;43.770;4.008;2022-09-09T05:12:09;2.87;;;0.97;;
13973;SDS011;7060;43.770;4.008;2022-09-09T05:14:45;2.10;;;0.77;;
13973;SDS011;7060;43.770;4.008;2022-09-09T05:17:13;4.40;;;1.07;;
13973;SDS011;7060;43.770;4.008;2022-09-09T05:19:43;3.87;;;1.10;;
13973;SDS011;7060;43.770;4.008;2022-09-09T05:22:12;5.93;;;0.87;;
13973;SDS011;7060;43.770;4.008;2022-09-09T05:24:44;3.23;;;0.93;;
13973;SDS011;7060;43.770;4.008;2022-09-09T05:27:12;1.23;;;1.00;;
13973;SDS011;7060;43.770;4.008;2022-09-09T05:29:41;3.10;;;1.10;;
13973;SDS011;7060;43.770;4.008;2022-09-09T05:32:12;4.30;;;0.90;;
13973;SDS011;7060;43.770;4.008;2022-09-09T05:34:45;4.80;;;1.70;;
13973;SDS011;7060;43.770;4.008;2022-09-09T05:37:15;3.57;;;0.90;;
13973;SDS011;7060;43.770;4.008;2022-09-09T05:39:44;5.33;;;1.00;;
13973;SDS011;7060;43.770;4.008;2022-09-09T05:42:13;4.63;;;0.90;;
13973;SDS011;7060;43.770;4.008;2022-09-09T05:44:41;1.57;;;0.93;;
13973;SDS011;7060;43.770;4.008;2022-09-09T05:47:11;5.00;;;1.00;;
13973;SDS011;7060;43.770;4.008;2022-09-09T05:49:41;3.17;;;1.07;;
13973;SDS011;7060;43.770;4.008;2022-09-09T05:52:09;4.30;;;1.20;;
13973;SDS011;7060;43.770;4.008;2022-09-09T05:54:39;3.23;;;1.20;;
13973;SDS011;7060;43.770;4.008;2022-09-09T05:57:08;3.00;;;0.93;;
13973;SDS011;7060;43.770;4.008;2022-09-09T05:59:37;1.70;;;1.20;;
13973;SDS011;7060;43.770;4.008;2022-09-09T06:02:05;2.37;;;1.00;;
13973;SDS011;7060;43.770;4.008;2022-09-09T06:04:35;5.30;;;1.67;;
13973;SDS011;7060;43.770;4.008;2022-09-09T06:07:05;3.40;;;1.80;;
13973;SDS011;7060;43.770;4.008;2022-09-09T06:09:34;4.37;;;1.40;;
13973;SDS011;7060;43.770;4.008;2022-09-09T06:12:04;5.07;;;1.20;;
13973;SDS011;7060;43.770;4.008;2022-09-09T06:14:34;2.73;;;1.00;;
13973;SDS011;7060;43.770;4.008;2022-09-09T06:17:03;2.40;;;1.23;;
13973;SDS011;7060;43.770;4.008;2022-09-09T06:19:34;4.50;;;1.17;;
13973;SDS011;7060;43.770;4.008;2022-09-09T06:22:02;4.90;;;1.37;;
13973;SDS011;7060;43.770;4.008;2022-09-09T06:24:35;3.70;;;1.00;;
13973;SDS011;7060;43.770;4.008;2022-09-09T06:27:05;3.37;;;0.80;;
13973;SDS011;7060;43.770;4.008;2022-09-09T06:29:35;6.30;;;1.20;;
13973;SDS011;7060;43.770;4.008;2022-09-09T06:32:04;4.40;;;1.47;;
13973;SDS011;7060;43.770;4.008;2022-09-09T06:34:35;6.27;;;1.13;;
13973;SDS011;7060;43.770;4.008;2022-09-09T06:37:03;2.03;;;1.00;;
13973;SDS011;7060;43.770;4.008;2022-09-09T06:39:41;2.60;;;1.30;;
13973;SDS011;7060;43.770;4.008;2022-09-09T06:42:11;5.97;;;1.17;;
13973;SDS011;7060;43.770;4.008;2022-09-09T06:44:49;2.37;;;1.03;;
13973;SDS011;7060;43.770;4.008;2022-09-09T06:47:34;2.33;;;0.97;;
13973;SDS011;7060;43.770;4.008;2022-09-09T06:50:03;2.33;;;1.30;;
13973;SDS011;7060;43.770;4.008;2022-09-09T06:52:33;3.30;;;1.40;;
13973;SDS011;7060;43.770;4.008;2022-09-09T06:55:02;4.57;;;1.00;;
13973;SDS011;7060;43.770;4.008;2022-09-09T06:57:34;3.30;;;1.63;;
13973;SDS011;7060;43.770;4.008;2022-09-09T07:00:15;4.00;;;1.30;;
13973;SDS011;7060;43.770;4.008;2022-09-09T07:02:43;2.63;;;1.20;;
13973;SDS011;7060;43.770;4.008;2022-09-09T07:05:12;1.50;;;1.10;;
13973;SDS011;7060;43.770;4.008;2022-09-09T07:07:44;2.50;;;1.20;;
13973;SDS011;7060;43.770;4.008;2022-09-09T07:10:14;3.72;;;1.40;;
13973;SDS011;7060;43.770;4.008;2022-09-09T07:12:51;3.67;;;1.57;;
13973;SDS011;7060;43.770;4.008;2022-09-09T07:15:22;5.33;;;1.73;;
13973;SDS011;7060;43.770;4.008;2022-09-09T07:17:52;3.30;;;2.00;;
13973;SDS011;7060;43.770;4.008;2022-09-09T07:20:21;3.20;;;1.63;;
13973;SDS011;7060;43.770;4.008;2022-09-09T07:22:50;4.33;;;1.83;;
13973;SDS011;7060;43.770;4.008;2022-09-09T07:25:23;3.33;;;1.40;;
13973;SDS011;7060;43.770;4.008;2022-09-09T07:27:52;4.80;;;1.40;;
13973;SDS011;7060;43.770;4.008;2022-09-09T07:30:21;2.23;;;1.10;;
13973;SDS011;7060;43.770;4.008;2022-09-09T07:32:54;3.13;;;1.00;;
13973;SDS011;7060;43.770;4.008;2022-09-09T07:35:23;2.73;;;1.20;;
13973;SDS011;7060;43.770;4.008;2022-09-09T07:37:52;1.73;;;0.90;;
13973;SDS011;7060;43.770;4.008;2022-09-09T07:40:20;5.47;;;0.83;;
13973;SDS011;7060;43.770;4.008;2022-09-09T07:42:49;4.50;;;1.03;;
13973;SDS011;7060;43.770;4.008;2022-09-09T07:45:20;5.50;;;0.80;;
13973;SDS011;7060;43.770;4.008;2022-09-09T07:47:49;2.77;;;1.10;;
13973;SDS011;7060;43.770;4.008;2022-09-09T07:50:17;2.90;;;1.03;;
13973;SDS011;7060;43.770;4.008;2022-09-09T07:52:46;2.67;;;0.90;;
13973;SDS011;7060;43.770;4.008;2022-09-09T07:55:15;1.00;;;0.70;;
13973;SDS011;7060;43.770;4.008;2022-09-09T07:57:44;5.40;;;1.00;;
13973;SDS011;7060;43.770;4.008;2022-09-09T08:00:14;2.13;;;0.70;;
13973;SDS011;7060;43.770;4.008;2022-09-09T08:02:50;2.47;;;0.50;;
13973;SDS011;7060;43.770;4.008;2022-09-09T08:05:21;2.57;;;0.90;;
13973;SDS011;7060;43.770;4.008;2022-09-09T08:07:50;2.73;;;0.80;;
13973;SDS011;7060;43.770;4.008;2022-09-09T08:10:18;2.43;;;1.00;;
13973;SDS011;7060;43.770;4.008;2022-09-09T08:12:48;3.37;;;1.07;;
13973;SDS011;7060;43.770;4.008;2022-09-09T08:15:37;3.23;;;0.90;;
13973;SDS011;7060;43.770;4.008;2022-09-09T08:18:07;2.20;;;0.93;;
13973;SDS011;7060;43.770;4.008;2022-09-09T08:20:37;1.53;;;0.80;;
13973;SDS011;7060;43.770;4.008;2022-09-09T08:23:05;2.20;;;0.80;;
13973;SDS011;7060;43.770;4.008;2022-09-09T08:25:34;2.23;;;0.70;;
13973;SDS011;7060;43.770;4.008;2022-09-09T08:28:02;1.63;;;0.70;;
13973;SDS011;7060;43.770;4.008;2022-09-09T08:30:31;0.90;;;0.47;;
13973;SDS011;7060;43.770;4.008;2022-09-09T08:32:59;3.13;;;0.73;;
13973;SDS011;7060;43.770;4.008;2022-09-09T08:35:29;2.23;;;1.03;;
13973;SDS011;7060;43.770;4.008;2022-09-09T08:38:00;3.20;;;0.90;;
13973;SDS011;7060;43.770;4.008;2022-09-09T08:40:32;1.77;;;0.87;;
13973;SDS011;7060;43.770;4.008;2022-09-09T08:43:07;1.57;;;0.70;;
13973;SDS011;7060;43.770;4.008;2022-09-09T08:45:37;1.93;;;0.60;;
13973;SDS011;7060;43.770;4.008;2022-09-09T08:48:19;1.87;;;0.60;;
13973;SDS011;7060;43.770;4.008;2022-09-09T08:51:03;1.63;;;0.77;;
13973;SDS011;7060;43.770;4.008;2022-09-09T08:53:38;1.47;;;0.70;;
13973;SDS011;7060;43.770;4.008;2022-09-09T08:56:11;3.87;;;1.30;;
13973;SDS011;7060;43.770;4.008;2022-09-09T08:58:48;7.10;;;1.33;;
13973;SDS011;7060;43.770;4.008;2022-09-09T09:01:28;3.53;;;0.80;;
13973;SDS011;7060;43.770;4.008;2022-09-09T09:04:17;3.33;;;0.93;;
13973;SDS011;7060;43.770;4.008;2022-09-09T09:07:02;3.03;;;0.93;;
13973;SDS011;7060;43.770;4.008;2022-09-09T09:09:38;2.13;;;1.07;;
13973;SDS011;7060;43.770;4.008;2022-09-09T09:12:15;5.33;;;1.10;;
13973;SDS011;7060;43.770;4.008;2022-09-09T09:14:47;1.70;;;0.70;;
13973;SDS011;7060;43.770;4.008;2022-09-09T09:17:18;2.67;;;0.87;;
13973;SDS011;7060;43.770;4.008;2022-09-09T09:19:48;2.47;;;0.70;;
13973;SDS011;7060;43.770;4.008;2022-09-09T09:22:19;3.37;;;0.80;;
13973;SDS011;7060;43.770;4.008;2022-09-09T09:24:53;2.37;;;0.80;;
13973;SDS011;7060;43.770;4.008;2022-09-09T09:27:27;1.07;;;0.70;;
13973;SDS011;7060;43.770;4.008;2022-09-09T09:30:01;1.50;;;0.80;;
13973;SDS011;7060;43.770;4.008;2022-09-09T09:32:59;1.73;;;0.60;;
13973;SDS011;7060;43.770;4.008;2022-09-09T09:35:30;2.83;;;0.77;;
13973;SDS011;7060;43.770;4.008;2022-09-09T09:38:10;1.47;;;0.60;;
13973;SDS011;7060;43.770;4.008;2022-09-09T09:41:04;2.00;;;0.77;;
13973;SDS011;7060;43.770;4.008;2022-09-09T09:43:33;2.97;;;1.40;;
13973;SDS011;7060;43.770;4.008;2022-09-09T09:46:17;1.00;;;0.70;;
13973;SDS011;7060;43.770;4.008;2022-09-09T09:48:56;2.23;;;0.80;;
13973;SDS011;7060;43.770;4.008;2022-09-09T09:51:26;2.33;;;0.70;;
13973;SDS011;7060;43.770;4.008;2022-09-09T09:54:07;3.57;;;0.80;;
13973;SDS011;7060;43.770;4.008;2022-09-09T09:56:47;1.40;;;0.53;;
13973;SDS011;7060;43.770;4.008;2022-09-09T09:59:19;1.10;;;0.70;;
13973;SDS011;7060;43.770;4.008;2022-09-09T10:02:14;5.50;;;0.70;;
13973;SDS011;7060;43.770;4.008;2022-09-09T10:04:48;5.93;;;1.00;;
13973;SDS011;7060;43.770;4.008;2022-09-09T10:07:18;3.63;;;0.65;;
13973;SDS011;7060;43.770;4.008;2022-09-09T10:09:50;1.02;;;0.50;;
13973;SDS011;7060;43.770;4.008;2022-09-09T10:12:24;3.08;;;0.60;;
13973;SDS011;7060;43.770;4.008;2022-09-09T10:15:06;1.92;;;0.50;;
13973;SDS011;7060;43.770;4.008;2022-09-09T10:17:46;2.42;;;0.45;;
13973;SDS011;7060;43.770;4.008;2022-09-09T10:20:27;0.80;;;0.40;;
13973;SDS011;7060;43.770;4.008;2022-09-09T10:23:08;4.10;;;0.77;;
13973;SDS011;7060;43.770;4.008;2022-09-09T10:25:53;1.52;;;0.57;;
13973;SDS011;7060;43.770;4.008;2022-09-09T10:31:31;0.90;;;0.40;;
13973;SDS011;7060;43.770;4.008;2022-09-09T10:34:06;1.25;;;0.45;;
13973;SDS011;7060;43.770;4.008;2022-09-09T10:36:47;1.75;;;0.30;;
13973;SDS011;7060;43.770;4.008;2022-09-09T10:39:20;2.65;;;0.30;;
13973;SDS011;7060;43.770;4.008;2022-09-09T10:42:04;0.82;;;0.30;;
13973;SDS011;7060;43.770;4.008;2022-09-09T10:47:41;0.80;;;0.40;;
13973;SDS011;7060;43.770;4.008;2022-09-09T10:50:35;1.20;;;0.40;;
13973;SDS011;7060;43.770;4.008;2022-09-09T10:53:37;1.40;;;0.40;;
13973;SDS011;7060;43.770;4.008;2022-09-09T10:56:14;1.05;;;0.40;;
13973;SDS011;7060;43.770;4.008;2022-09-09T10:58:49;2.15;;;0.50;;
13973;SDS011;7060;43.770;4.008;2022-09-09T11:01:21;1.27;;;0.40;;
13973;SDS011;7060;43.770;4.008;2022-09-09T11:03:54;0.80;;;0.40;;
13973;SDS011;7060;43.770;4.008;2022-09-09T11:06:28;2.63;;;0.30;;
13973;SDS011;7060;43.770;4.008;2022-09-09T11:09:02;0.80;;;0.40;;
13973;SDS011;7060;43.770;4.008;2022-09-09T11:11:32;1.35;;;0.40;;
13973;SDS011;7060;43.770;4.008;2022-09-09T11:14:10;0.40;;;0.40;;
13973;SDS011;7060;43.770;4.008;2022-09-09T11:16:46;0.63;;;0.30;;
13973;SDS011;7060;43.770;4.008;2022-09-09T11:19:20;1.63;;;0.30;;
13973;SDS011;7060;43.770;4.008;2022-09-09T11:21:54;0.57;;;0.40;;
13973;SDS011;7060;43.770;4.008;2022-09-09T11:24:26;0.65;;;0.40;;
13973;SDS011;7060;43.770;4.008;2022-09-09T11:27:02;1.73;;;0.40;;
13973;SDS011;7060;43.770;4.008;2022-09-09T11:29:50;3.00;;;0.55;;
13973;SDS011;7060;43.770;4.008;2022-09-09T11:35:51;1.00;;;0.40;;
13973;SDS011;7060;43.770;4.008;2022-09-09T11:38:36;0.73;;;0.40;;
13973;SDS011;7060;43.770;4.008;2022-09-09T11:41:13;0.95;;;0.47;;
13973;SDS011;7060;43.770;4.008;2022-09-09T11:43:47;1.00;;;0.40;;
13973;SDS011;7060;43.770;4.008;2022-09-09T11:46:20;0.63;;;0.43;;
13973;SDS011;7060;43.770;4.008;2022-09-09T11:49:01;1.85;;;0.55;;
13973;SDS011;7060;43.770;4.008;2022-09-09T11:51:31;1.50;;;0.40;;
13973;SDS011;7060;43.770;4.008;2022-09-09T11:54:02;1.15;;;0.40;;
13973;SDS011;7060;43.770;4.008;2022-09-09T11:56:47;1.90;;;0.40;;
13973;SDS011;7060;43.770;4.008;2022-09-09T11:59:19;2.60;;;0.40;;
13973;SDS011;7060;43.770;4.008;2022-09-09T12:01:50;0.98;;;0.43;;
13973;SDS011;7060;43.770;4.008;2022-09-09T12:04:29;0.90;;;0.40;;
13973;SDS011;7060;43.770;4.008;2022-09-09T12:07:00;0.50;;;0.40;;
13973;SDS011;7060;43.770;4.008;2022-09-09T12:09:37;1.33;;;0.50;;
13973;SDS011;7060;43.770;4.008;2022-09-09T12:12:26;1.05;;;0.50;;
13973;SDS011;7060;43.770;4.008;2022-09-09T12:15:00;3.88;;;0.45;;
13973;SDS011;7060;43.770;4.008;2022-09-09T12:17:49;1.30;;;0.63;;
13973;SDS011;7060;43.770;4.008;2022-09-09T12:20:20;2.38;;;0.57;;
13973;SDS011;7060;43.770;4.008;2022-09-09T12:22:53;0.88;;;0.50;;
13973;SDS011;7060;43.770;4.008;2022-09-09T12:25:33;2.72;;;0.88;;
13973;SDS011;7060;43.770;4.008;2022-09-09T12:28:14;1.38;;;0.68;;
13973;SDS011;7060;43.770;4.008;2022-09-09T12:30:48;1.92;;;0.77;;
13973;SDS011;7060;43.770;4.008;2022-09-09T12:33:23;1.38;;;0.93;;
13973;SDS011;7060;43.770;4.008;2022-09-09T12:35:53;1.45;;;0.40;;
13973;SDS011;7060;43.770;4.008;2022-09-09T12:38:29;1.00;;;0.40;;
13973;SDS011;7060;43.770;4.008;2022-09-09T12:41:04;0.98;;;0.60;;
13973;SDS011;7060;43.770;4.008;2022-09-09T12:43:32;2.70;;;0.68;;
13973;SDS011;7060;43.770;4.008;2022-09-09T12:46:02;0.52;;;0.40;;
13973;SDS011;7060;43.770;4.008;2022-09-09T12:48:38;1.40;;;0.80;;
13973;SDS011;7060;43.770;4.008;2022-09-09T12:51:16;1.52;;;0.60;;
13973;SDS011;7060;43.770;4.008;2022-09-09T12:53:47;0.68;;;0.50;;
13973;SDS011;7060;43.770;4.008;2022-09-09T12:56:20;3.30;;;0.52;;
13973;SDS011;7060;43.770;4.008;2022-09-09T12:58:50;3.53;;;0.70;;
13973;SDS011;7060;43.770;4.008;2022-09-09T13:01:23;2.25;;;0.80;;
13973;SDS011;7060;43.770;4.008;2022-09-09T13:03:55;2.22;;;0.73;;
13973;SDS011;7060;43.770;4.008;2022-09-09T13:06:24;1.20;;;0.50;;
13973;SDS011;7060;43.770;4.008;2022-09-09T13:08:55;0.90;;;0.43;;
13973;SDS011;7060;43.770;4.008;2022-09-09T13:11:26;1.17;;;0.50;;
13973;SDS011;7060;43.770;4.008;2022-09-09T13:13:57;0.50;;;0.38;;
13973;SDS011;7060;43.770;4.008;2022-09-09T13:16:28;2.30;;;0.50;;
13973;SDS011;7060;43.770;4.008;2022-09-09T13:19:06;1.13;;;0.35;;
13973;SDS011;7060;43.770;4.008;2022-09-09T13:21:37;1.08;;;0.30;;
13973;SDS011;7060;43.770;4.008;2022-09-09T13:24:19;1.05;;;0.30;;
13973;SDS011;7060;43.770;4.008;2022-09-09T13:26:54;1.63;;;0.28;;
13973;SDS011;7060;43.770;4.008;2022-09-09T13:29:24;0.47;;;0.40;;
13973;SDS011;7060;43.770;4.008;2022-09-09T13:31:52;1.52;;;0.30;;
13973;SDS011;7060;43.770;4.008;2022-09-09T13:34:27;1.15;;;0.30;;
13973;SDS011;7060;43.770;4.008;2022-09-09T13:36:58;0.52;;;0.22;;
13973;SDS011;7060;43.770;4.008;2022-09-09T13:39:29;0.90;;;0.30;;
13973;SDS011;7060;43.770;4.008;2022-09-09T13:41:57;0.50;;;0.35;;
13973;SDS011;7060;43.770;4.008;2022-09-09T13:44:26;1.52;;;0.20;;
13973;SDS011;7060;43.770;4.008;2022-09-09T13:47:00;1.30;;;0.28;;
13973;SDS011;7060;43.770;4.008;2022-09-09T13:49:37;0.20;;;0.20;;
13973;SDS011;7060;43.770;4.008;2022-09-09T13:52:09;0.77;;;0.20;;
13973;SDS011;7060;43.770;4.008;2022-09-09T13:54:40;0.80;;;0.30;;
13973;SDS011;7060;43.770;4.008;2022-09-09T13:57:14;1.50;;;0.20;;
13973;SDS011;7060;43.770;4.008;2022-09-09T13:59:44;0.88;;;0.20;;
13973;SDS011;7060;43.770;4.008;2022-09-09T14:02:30;0.88;;;0.20;;
13973;SDS011;7060;43.770;4.008;2022-09-09T14:05:00;0.30;;;0.10;;
13973;SDS011;7060;43.770;4.008;2022-09-09T14:07:28;0.40;;;0.30;;
13973;SDS011;7060;43.770;4.008;2022-09-09T14:09:56;0.35;;;0.20;;
13973;SDS011;7060;43.770;4.008;2022-09-09T14:12:28;0.28;;;0.20;;
13973;SDS011;7060;43.770;4.008;2022-09-09T14:14:56;0.10;;;0.10;;
13973;SDS011;7060;43.770;4.008;2022-09-09T14:17:26;0.32;;;0.10;;
13973;SDS011;7060;43.770;4.008;2022-09-09T14:19:57;0.30;;;0.30;;
13973;SDS011;7060;43.770;4.008;2022-09-09T14:22:27;0.68;;;0.30;;
13973;SDS011;7060;43.770;4.008;2022-09-09T14:24:56;0.55;;;0.30;;
13973;SDS011;7060;43.770;4.008;2022-09-09T14:27:24;0.57;;;0.30;;
13973;SDS011;7060;43.770;4.008;2022-09-09T14:29:53;0.32;;;0.25;;
13973;SDS011;7060;43.770;4.008;2022-09-09T14:32:22;0.98;;;0.30;;
13973;SDS011;7060;43.770;4.008;2022-09-09T14:34:50;0.30;;;0.20;;
13973;SDS011;7060;43.770;4.008;2022-09-09T14:37:18;0.75;;;0.40;;
13973;SDS011;7060;43.770;4.008;2022-09-09T14:39:48;0.17;;;0.10;;
13973;SDS011;7060;43.770;4.008;2022-09-09T14:42:17;0.40;;;0.20;;
13973;SDS011;7060;43.770;4.008;2022-09-09T14:44:46;0.68;;;0.20;;
13973;SDS011;7060;43.770;4.008;2022-09-09T14:47:14;0.40;;;0.20;;
13973;SDS011;7060;43.770;4.008;2022-09-09T14:49:42;0.75;;;0.20;;
13973;SDS011;7060;43.770;4.008;2022-09-09T14:52:12;0.77;;;0.20;;
13973;SDS011;7060;43.770;4.008;2022-09-09T14:54:41;1.20;;;0.25;;
13973;SDS011;7060;43.770;4.008;2022-09-09T14:57:10;1.30;;;0.20;;
13973;SDS011;7060;43.770;4.008;2022-09-09T14:59:39;0.82;;;0.30;;
13973;SDS011;7060;43.770;4.008;2022-09-09T15:02:07;0.75;;;0.55;;
13973;SDS011;7060;43.770;4.008;2022-09-09T15:04:36;1.85;;;0.30;;
13973;SDS011;7060;43.770;4.008;2022-09-09T15:07:05;2.58;;;0.40;;
13973;SDS011;7060;43.770;4.008;2022-09-09T15:09:33;0.95;;;0.30;;
13973;SDS011;7060;43.770;4.008;2022-09-09T15:12:03;0.60;;;0.40;;
13973;SDS011;7060;43.770;4.008;2022-09-09T15:14:33;1.83;;;0.30;;
13973;SDS011;7060;43.770;4.008;2022-09-09T15:17:02;2.55;;;0.30;;
13973;SDS011;7060;43.770;4.008;2022-09-09T15:19:31;1.08;;;0.30;;
13973;SDS011;7060;43.770;4.008;2022-09-09T15:22:00;0.80;;;0.20;;
13973;SDS011;7060;43.770;4.008;2022-09-09T15:24:28;1.38;;;0.30;;
13973;SDS011;7060;43.770;4.008;2022-09-09T15:26:57;1.55;;;0.40;;
13973;SDS011;7060;43.770;4.008;2022-09-09T15:29:25;1.13;;;0.30;;
13973;SDS011;7060;43.770;4.008;2022-09-09T15:31:55;1.67;;;0.40;;
13973;SDS011;7060;43.770;4.008;2022-09-09T15:34:24;1.25;;;0.25;;
13973;SDS011;7060;43.770;4.008;2022-09-09T15:36:52;0.63;;;0.20;;
13973;SDS011;7060;43.770;4.008;2022-09-09T15:39:21;1.58;;;0.30;;
13973;SDS011;7060;43.770;4.008;2022-09-09T15:41:50;1.55;;;0.20;;
13973;SDS011;7060;43.770;4.008;2022-09-09T15:44:18;0.55;;;0.20;;
13973;SDS011;7060;43.770;4.008;2022-09-09T15:46:48;1.42;;;0.30;;